createdAt,value
2023-05-10T00:02:09.147Z,1.83
2023-05-10T00:04:35.884Z,1.98
2023-05-10T00:07:02.596Z,2.13
2023-05-10T00:09:29.283Z,1.90
2023-05-10T00:11:56.016Z,2.75
2023-05-10T00:14:22.729Z,2.60
2023-05-10T00:16:49.511Z,2.35
2023-05-10T00:19:18.253Z,2.50
2023-05-10T00:21:44.979Z,2.22
2023-05-10T00:24:14.170Z,2.72
2023-05-10T00:26:41.054Z,1.83
2023-05-10T00:29:07.757Z,2.10
2023-05-10T00:31:36.726Z,2.53
2023-05-10T00:34:03.517Z,2.60
2023-05-10T00:36:30.317Z,2.55
2023-05-10T00:38:57.134Z,2.30
2023-05-10T00:41:23.915Z,2.67
2023-05-10T00:43:50.682Z,2.60
2023-05-10T00:46:18.795Z,2.58
2023-05-10T00:48:47.724Z,2.58
2023-05-10T00:51:15.030Z,2.47
2023-05-10T00:53:42.014Z,2.40
2023-05-10T00:56:09.077Z,2.70
2023-05-10T00:58:35.859Z,2.65
2023-05-10T01:01:02.797Z,2.72
2023-05-10T01:03:30.149Z,1.83
2023-05-10T01:05:56.940Z,3.17
2023-05-10T01:08:23.863Z,2.70
2023-05-10T01:10:50.867Z,3.20
2023-05-10T01:13:39.021Z,2.67
2023-05-10T01:16:07.537Z,2.58
2023-05-10T01:18:39.707Z,3.10
2023-05-10T01:21:23.430Z,2.43
2023-05-10T01:24:12.993Z,2.80
2023-05-10T01:26:58.941Z,3.15
2023-05-10T01:30:14.913Z,3.35
2023-05-10T01:32:54.351Z,3.22
2023-05-10T01:35:44.308Z,3.73
2023-05-10T01:38:16.866Z,2.17
2023-05-10T01:41:04.683Z,3.35
2023-05-10T01:43:37.898Z,3.13
2023-05-10T01:46:17.623Z,4.00
2023-05-10T01:48:52.596Z,3.30
2023-05-10T01:51:24.885Z,3.53
2023-05-10T01:53:55.259Z,3.58
2023-05-10T01:56:27.446Z,3.55
2023-05-10T01:58:55.278Z,4.10
2023-05-10T02:01:22.994Z,3.30
2023-05-10T02:03:52.105Z,4.10
2023-05-10T02:06:21.204Z,3.42
2023-05-10T02:08:53.547Z,3.35
2023-05-10T02:11:24.295Z,3.17
2023-05-10T02:13:52.774Z,4.33
2023-05-10T02:16:26.348Z,3.78
2023-05-10T02:18:58.248Z,3.90
2023-05-10T02:21:26.634Z,3.45
2023-05-10T02:23:55.377Z,4.07
2023-05-10T02:26:24.677Z,3.40
2023-05-10T02:28:52.546Z,3.85
2023-05-10T02:31:20.547Z,2.83
2023-05-10T02:33:48.563Z,3.92
2023-05-10T02:36:20.287Z,4.50
2023-05-10T02:38:48.610Z,3.97
2023-05-10T02:41:15.977Z,4.03
2023-05-10T02:43:46.517Z,4.15
2023-05-10T02:46:16.052Z,3.72
2023-05-10T02:48:42.917Z,4.10
2023-05-10T02:51:10.930Z,4.67
2023-05-10T02:53:42.010Z,5.50
2023-05-10T02:56:35.490Z,3.67
2023-05-10T02:59:02.312Z,5.22
2023-05-10T03:01:29.145Z,5.22
2023-05-10T03:03:58.425Z,3.93
2023-05-10T03:06:25.197Z,4.85
2023-05-10T03:08:52.043Z,5.03
2023-05-10T03:11:34.017Z,4.95
2023-05-10T03:14:18.365Z,4.15
2023-05-10T03:16:53.625Z,3.83
2023-05-10T03:19:32.125Z,3.83
2023-05-10T03:22:04.708Z,4.80
2023-05-10T03:24:33.246Z,4.93
2023-05-10T03:27:03.923Z,3.83
2023-05-10T03:29:31.910Z,4.37
2023-05-10T03:32:02.691Z,4.20
2023-05-10T03:34:32.421Z,4.55
2023-05-10T03:36:59.264Z,4.30
2023-05-10T03:39:26.098Z,5.00
2023-05-10T03:41:52.811Z,4.97
2023-05-10T03:44:19.591Z,4.47
2023-05-10T03:46:46.617Z,4.78
2023-05-10T03:49:13.460Z,4.00
2023-05-10T03:51:40.161Z,5.00
2023-05-10T03:54:06.882Z,4.20
2023-05-10T03:56:35.911Z,4.43
2023-05-10T03:59:02.683Z,3.42
2023-05-10T04:01:29.347Z,2.97
2023-05-10T04:03:56.187Z,4.15
2023-05-10T04:06:23.052Z,3.97
2023-05-10T04:08:49.778Z,3.90
2023-05-10T04:11:19.074Z,3.22
2023-05-10T04:13:48.585Z,4.55
2023-05-10T04:16:15.262Z,3.70
2023-05-10T04:18:42.025Z,3.87
2023-05-10T04:21:15.439Z,4.15
2023-05-10T04:23:44.533Z,4.43
2023-05-10T04:26:14.034Z,3.38
2023-05-10T04:28:43.500Z,3.50
2023-05-10T04:31:11.470Z,3.50
2023-05-10T04:33:38.264Z,2.97
2023-05-10T04:36:05.453Z,3.45
2023-05-10T04:38:32.287Z,3.25
2023-05-10T04:41:09.294Z,3.45
2023-05-10T04:43:38.064Z,2.80
2023-05-10T04:46:08.536Z,2.85
2023-05-10T04:48:35.621Z,3.92
2023-05-10T04:51:02.498Z,3.50
2023-05-10T04:53:29.205Z,3.58
2023-05-10T04:55:55.983Z,2.77
2023-05-10T04:58:22.753Z,3.67
2023-05-10T05:00:49.530Z,3.33
2023-05-10T05:03:16.493Z,3.95
2023-05-10T05:05:43.279Z,3.47
2023-05-10T05:08:10.012Z,3.40
2023-05-10T05:10:36.720Z,2.70
2023-05-10T05:13:03.549Z,3.55
2023-05-10T05:15:31.676Z,3.90
2023-05-10T05:17:58.588Z,3.42
2023-05-10T05:20:27.802Z,3.43
2023-05-10T05:22:57.210Z,2.75
2023-05-10T05:25:23.997Z,2.75
2023-05-10T05:27:50.797Z,3.55
2023-05-10T05:30:18.234Z,3.55
2023-05-10T05:32:45.212Z,2.93
2023-05-10T05:35:12.148Z,3.28
2023-05-10T05:37:41.414Z,3.28
2023-05-10T05:40:08.782Z,3.28
2023-05-10T05:42:35.593Z,3.22
2023-05-10T05:45:02.376Z,2.93
2023-05-10T05:47:30.920Z,3.28
2023-05-10T05:49:57.711Z,2.95
2023-05-10T05:52:26.558Z,4.18
2023-05-10T05:54:53.228Z,3.00
2023-05-10T05:57:19.916Z,3.37
2023-05-10T05:59:47.032Z,3.03
2023-05-10T06:02:13.853Z,2.28
2023-05-10T06:04:44.894Z,3.95
2023-05-10T06:07:11.717Z,2.35
2023-05-10T06:09:38.466Z,4.00
2023-05-10T06:12:07.785Z,3.70
2023-05-10T06:14:34.509Z,3.22
2023-05-10T06:17:01.646Z,3.47
2023-05-10T06:19:28.537Z,3.92
2023-05-10T06:21:56.037Z,4.00
2023-05-10T06:24:31.533Z,2.72
2023-05-10T06:27:01.133Z,2.72
2023-05-10T06:29:27.947Z,3.22
2023-05-10T06:31:55.288Z,3.40
2023-05-10T06:34:21.994Z,4.30
2023-05-10T06:36:48.671Z,3.10
2023-05-10T06:39:15.520Z,3.67
2023-05-10T06:41:42.261Z,3.15
2023-05-10T06:44:09.566Z,2.45
2023-05-10T06:46:36.429Z,3.00
2023-05-10T06:49:03.216Z,3.13
2023-05-10T06:51:29.956Z,2.97
2023-05-10T06:53:56.673Z,2.95
2023-05-10T06:56:23.444Z,2.72
2023-05-10T06:58:52.898Z,2.63
2023-05-10T07:01:19.747Z,2.83
2023-05-10T07:03:46.573Z,2.95
2023-05-10T07:06:21.599Z,3.25
2023-05-10T07:08:58.265Z,2.70
2023-05-10T07:11:25.044Z,2.33
2023-05-10T07:13:51.818Z,2.70
2023-05-10T07:16:18.614Z,2.70
2023-05-10T07:18:45.657Z,2.63
2023-05-10T07:21:12.410Z,2.92
2023-05-10T07:23:39.246Z,3.00
2023-05-10T07:26:06.124Z,2.45
2023-05-10T07:28:32.963Z,3.28
2023-05-10T07:30:59.947Z,3.15
2023-05-10T07:33:26.746Z,2.40
2023-05-10T07:35:53.474Z,2.00
2023-05-10T07:38:20.176Z,2.30
2023-05-10T07:40:56.567Z,2.00
2023-05-10T07:43:23.419Z,2.63
2023-05-10T07:45:50.227Z,2.47
2023-05-10T07:48:16.986Z,2.60
2023-05-10T07:50:43.754Z,2.72
2023-05-10T07:53:11.024Z,3.03
2023-05-10T07:55:39.667Z,2.35
2023-05-10T07:58:09.479Z,3.88
2023-05-10T08:00:36.257Z,3.50
2023-05-10T08:03:05.628Z,2.78
2023-05-10T08:05:33.560Z,3.60
2023-05-10T08:08:01.987Z,2.38
2023-05-10T08:10:28.739Z,2.65
2023-05-10T08:12:55.528Z,2.97
2023-05-10T08:15:22.240Z,2.90
2023-05-10T08:17:49.408Z,2.40
2023-05-10T08:20:18.708Z,3.05
2023-05-10T08:22:46.970Z,2.72
2023-05-10T08:25:13.762Z,2.50
2023-05-10T08:27:43.242Z,2.80
2023-05-10T08:30:14.101Z,2.58
2023-05-10T08:32:45.122Z,2.67
2023-05-10T08:35:11.897Z,3.22
2023-05-10T08:37:38.637Z,4.00
2023-05-10T08:40:12.356Z,3.17
2023-05-10T08:42:42.829Z,2.80
2023-05-10T08:45:11.508Z,3.85
2023-05-10T08:47:42.264Z,3.33
2023-05-10T08:50:09.688Z,4.07
2023-05-10T08:52:42.967Z,3.20
2023-05-10T08:55:11.082Z,3.08
2023-05-10T08:57:38.029Z,3.00
2023-05-10T09:00:07.378Z,2.90
2023-05-10T09:02:34.751Z,3.60
2023-05-10T09:05:05.190Z,4.03
2023-05-10T09:07:34.220Z,4.10
2023-05-10T09:10:05.473Z,5.20
2023-05-10T09:12:32.176Z,3.85
2023-05-10T09:15:01.111Z,4.27
2023-05-10T09:17:33.699Z,3.58
2023-05-10T09:20:01.651Z,3.53
2023-05-10T09:22:29.635Z,3.10
2023-05-10T09:25:06.306Z,3.28
2023-05-10T09:27:33.165Z,3.30
2023-05-10T09:29:59.867Z,4.38
2023-05-10T09:32:38.127Z,3.70
2023-05-10T09:35:09.768Z,3.08
2023-05-10T09:37:36.513Z,3.47
2023-05-10T09:40:08.499Z,3.07
2023-05-10T09:42:36.142Z,3.88
2023-05-10T09:45:04.904Z,3.58
2023-05-10T09:47:41.366Z,3.75
2023-05-10T09:50:08.711Z,2.13
2023-05-10T09:52:57.207Z,2.87
2023-05-10T09:55:27.727Z,2.33
2023-05-10T09:58:01.974Z,3.20
2023-05-10T10:00:32.397Z,3.00
2023-05-10T10:03:01.186Z,2.85
2023-05-10T10:05:36.007Z,2.73
2023-05-10T10:08:09.048Z,2.75
2023-05-10T10:10:36.005Z,2.70
2023-05-10T10:13:03.520Z,2.78
2023-05-10T10:15:30.315Z,3.20
2023-05-10T10:17:57.126Z,3.20
2023-05-10T10:20:26.221Z,3.08
2023-05-10T10:22:56.461Z,3.05
2023-05-10T10:25:23.679Z,2.53
2023-05-10T10:27:53.313Z,3.42
2023-05-10T10:30:48.149Z,2.47
2023-05-10T10:33:36.976Z,2.47
2023-05-10T10:36:05.212Z,3.30
2023-05-10T10:39:01.970Z,3.30
2023-05-10T10:41:37.235Z,3.10
2023-05-10T10:44:23.857Z,3.37
2023-05-10T10:47:12.735Z,3.20
2023-05-10T10:49:49.285Z,3.10
2023-05-10T10:52:38.674Z,3.67
2023-05-10T10:55:30.826Z,2.63
2023-05-10T10:58:05.513Z,2.90
2023-05-10T11:00:42.002Z,2.97
2023-05-10T11:03:19.805Z,3.58
2023-05-10T11:05:50.607Z,2.67
2023-05-10T11:08:30.321Z,3.13
2023-05-10T11:10:59.998Z,3.30
2023-05-10T11:13:34.477Z,2.40
2023-05-10T11:16:11.876Z,3.33
2023-05-10T11:18:38.939Z,3.35
2023-05-10T11:21:09.205Z,3.72
2023-05-10T11:23:44.924Z,3.40
2023-05-10T11:26:13.229Z,2.85
2023-05-10T11:28:48.197Z,2.97
2023-05-10T11:31:19.563Z,2.78
2023-05-10T11:33:52.591Z,2.35
2023-05-10T11:36:22.569Z,3.60
2023-05-10T11:38:49.744Z,2.47
2023-05-10T11:41:19.108Z,3.13
2023-05-10T11:43:48.761Z,3.10
2023-05-10T11:46:16.231Z,3.10
2023-05-10T11:48:43.939Z,3.00
2023-05-10T11:51:12.301Z,2.30
2023-05-10T11:53:41.967Z,2.97
2023-05-10T11:56:10.429Z,1.95
2023-05-10T11:58:40.795Z,2.22
2023-05-10T12:01:09.017Z,3.00
2023-05-10T12:03:36.242Z,2.80
2023-05-10T12:06:04.091Z,3.17
2023-05-10T12:08:32.036Z,2.50
2023-05-10T12:11:12.076Z,3.72
2023-05-10T12:13:42.830Z,3.63
2023-05-10T12:16:18.255Z,2.47
2023-05-10T12:18:46.056Z,3.72
2023-05-10T12:21:15.778Z,2.78
2023-05-10T12:23:43.059Z,2.60
2023-05-10T12:26:15.510Z,3.50
2023-05-10T12:28:42.169Z,2.85
2023-05-10T12:31:09.242Z,2.80
2023-05-10T12:33:44.224Z,3.10
2023-05-10T12:36:12.390Z,3.20
2023-05-10T12:38:43.205Z,3.17
2023-05-10T12:41:15.876Z,3.50
2023-05-10T12:43:45.321Z,3.78
2023-05-10T12:46:15.086Z,3.40
2023-05-10T12:48:43.572Z,4.05
2023-05-10T12:51:12.787Z,3.63
2023-05-10T12:53:42.557Z,4.35
2023-05-10T12:56:11.449Z,2.90
2023-05-10T12:58:39.246Z,4.07
2023-05-10T13:01:09.527Z,3.55
2023-05-10T13:03:36.334Z,3.73
2023-05-10T13:06:03.023Z,3.08
2023-05-10T13:08:34.436Z,3.80
2023-05-10T13:11:04.163Z,3.58
2023-05-10T13:13:31.001Z,3.10
2023-05-10T13:15:57.802Z,3.40
2023-05-10T13:18:25.577Z,4.45
2023-05-10T13:20:52.363Z,4.25
2023-05-10T13:23:19.080Z,5.40
2023-05-10T13:25:45.992Z,5.15
2023-05-10T13:28:12.712Z,4.07
2023-05-10T13:30:39.452Z,3.67
2023-05-10T13:33:06.387Z,4.22
2023-05-10T13:35:33.222Z,3.60
2023-05-10T13:37:59.996Z,3.63
2023-05-10T13:40:26.756Z,3.63
2023-05-10T13:42:54.139Z,2.08
2023-05-10T13:45:20.958Z,3.13
2023-05-10T13:47:48.178Z,3.40
2023-05-10T13:50:17.935Z,3.17
2023-05-10T13:52:45.864Z,3.03
2023-05-10T13:55:20.195Z,2.33
2023-05-10T13:57:47.387Z,2.85
2023-05-10T14:00:14.496Z,2.15
2023-05-10T14:02:43.857Z,2.85
2023-05-10T14:05:11.024Z,2.90
2023-05-10T14:07:37.921Z,2.80
2023-05-10T14:10:05.016Z,3.08
2023-05-10T14:12:34.717Z,3.15
2023-05-10T14:15:01.545Z,2.58
2023-05-10T14:17:28.472Z,2.40
2023-05-10T14:19:55.423Z,2.63
2023-05-10T14:22:22.182Z,2.70
2023-05-10T14:24:48.897Z,2.35
2023-05-10T14:27:16.321Z,2.58
2023-05-10T14:29:43.250Z,2.73
2023-05-10T14:32:10.125Z,2.83
2023-05-10T14:34:36.968Z,2.95
2023-05-10T14:37:03.695Z,2.88
2023-05-10T14:39:31.226Z,3.00
2023-05-10T14:41:57.983Z,3.57
2023-05-10T14:44:24.947Z,3.45
2023-05-10T14:46:51.919Z,3.25
2023-05-10T14:49:23.750Z,3.40
2023-05-10T14:51:50.481Z,2.70
2023-05-10T14:54:17.208Z,3.10
2023-05-10T14:56:43.965Z,3.33
2023-05-10T14:59:10.856Z,2.42
2023-05-10T15:01:38.958Z,1.95
2023-05-10T15:04:06.110Z,1.98
2023-05-10T15:06:36.373Z,2.90
2023-05-10T15:09:07.316Z,2.20
2023-05-10T15:11:34.114Z,3.30
2023-05-10T15:14:00.812Z,2.05
2023-05-10T15:16:27.586Z,2.50
2023-05-10T15:18:54.401Z,3.00
2023-05-10T15:21:21.270Z,2.22
2023-05-10T15:23:48.056Z,3.20
2023-05-10T15:26:15.068Z,2.70
2023-05-10T15:28:41.749Z,2.63
2023-05-10T15:31:08.511Z,2.27
2023-05-10T15:33:35.291Z,2.08
2023-05-10T15:36:02.170Z,2.03
2023-05-10T15:38:28.867Z,2.38
2023-05-10T15:40:59.118Z,2.70
2023-05-10T15:43:28.235Z,1.97
2023-05-10T15:45:54.945Z,1.92
2023-05-10T15:48:21.644Z,2.60
2023-05-10T15:50:50.449Z,3.50
2023-05-10T15:53:17.419Z,2.67
2023-05-10T15:55:44.131Z,2.17
2023-05-10T15:58:11.367Z,2.15
2023-05-10T16:00:39.210Z,2.47
2023-05-10T16:03:08.097Z,2.63
2023-05-10T16:05:35.021Z,2.50
2023-05-10T16:08:02.359Z,2.90
2023-05-10T16:10:33.224Z,2.60
2023-05-10T16:13:00.674Z,2.10
2023-05-10T16:15:27.623Z,2.70
2023-05-10T16:17:54.690Z,2.58
2023-05-10T16:20:21.507Z,2.27
2023-05-10T16:22:48.258Z,2.55
2023-05-10T16:25:15.428Z,2.65
2023-05-10T16:27:43.218Z,1.55
2023-05-10T16:30:10.277Z,2.30
2023-05-10T16:32:37.221Z,2.57
2023-05-10T16:35:07.134Z,1.70
2023-05-10T16:37:33.811Z,2.05
2023-05-10T16:40:04.018Z,2.20
2023-05-10T16:42:31.130Z,1.83
2023-05-10T16:44:57.983Z,2.03
2023-05-10T16:47:26.983Z,2.08
2023-05-10T16:49:53.872Z,2.53
2023-05-10T16:52:20.672Z,1.80
2023-05-10T16:54:47.430Z,2.20
2023-05-10T16:57:14.279Z,1.90
2023-05-10T16:59:41.063Z,2.30
2023-05-10T17:02:08.008Z,2.55
2023-05-10T17:04:35.194Z,2.42
2023-05-10T17:07:01.928Z,4.32
2023-05-10T17:09:28.685Z,2.83
2023-05-10T17:11:55.749Z,2.97
2023-05-10T17:14:22.556Z,2.33
2023-05-10T17:16:49.984Z,2.25
2023-05-10T17:19:16.847Z,2.78
2023-05-10T17:21:43.591Z,2.30
2023-05-10T17:24:12.215Z,2.60
2023-05-10T17:26:39.028Z,2.80
2023-05-10T17:29:05.786Z,2.20
2023-05-10T17:31:36.957Z,2.90
2023-05-10T17:34:05.643Z,2.63
2023-05-10T17:36:32.616Z,3.60
2023-05-10T17:38:59.462Z,3.88
2023-05-10T17:41:26.193Z,3.85
2023-05-10T17:43:53.215Z,3.67
2023-05-10T17:46:19.998Z,4.43
2023-05-10T17:48:46.788Z,3.97
2023-05-10T17:51:13.620Z,4.20
2023-05-10T17:53:41.044Z,4.53
2023-05-10T17:56:07.914Z,4.53
2023-05-10T17:58:38.327Z,3.97
2023-05-10T18:01:05.520Z,2.60
2023-05-10T18:03:32.402Z,3.35
2023-05-10T18:05:59.239Z,2.90
2023-05-10T18:08:27.495Z,2.90
2023-05-10T18:10:54.349Z,3.63
2023-05-10T18:13:21.126Z,5.18
2023-05-10T18:15:48.272Z,4.50
2023-05-10T18:18:15.139Z,4.72
2023-05-10T18:20:41.919Z,4.55
2023-05-10T18:23:11.372Z,4.67
2023-05-10T18:25:38.175Z,3.97
2023-05-10T18:28:05.104Z,4.93
2023-05-10T18:30:31.866Z,4.53
2023-05-10T18:32:58.667Z,5.00
2023-05-10T18:35:25.521Z,4.60
2023-05-10T18:37:52.621Z,3.90
2023-05-10T18:40:19.684Z,4.40
2023-05-10T18:42:51.629Z,4.32
2023-05-10T18:45:18.654Z,4.68
2023-05-10T18:47:45.781Z,4.73
2023-05-10T18:50:13.271Z,4.00
2023-05-10T18:52:40.139Z,4.07
2023-05-10T18:55:08.530Z,4.20
2023-05-10T18:57:41.477Z,4.57
2023-05-10T19:00:12.608Z,3.70
2023-05-10T19:02:40.467Z,3.97
2023-05-10T19:05:08.686Z,4.50
2023-05-10T19:07:36.552Z,3.90
2023-05-10T19:10:03.612Z,4.43
2023-05-10T19:12:30.887Z,4.23
2023-05-10T19:15:01.024Z,3.92
2023-05-10T19:17:29.324Z,4.30
2023-05-10T19:19:59.102Z,4.25
2023-05-10T19:22:44.916Z,3.70
2023-05-10T19:25:14.233Z,4.60
2023-05-10T19:27:44.592Z,4.30
2023-05-10T19:30:14.244Z,5.05
2023-05-10T19:32:44.380Z,5.43
2023-05-10T19:35:13.729Z,5.40
2023-05-10T19:37:40.813Z,4.20
2023-05-10T19:40:15.418Z,4.43
2023-05-10T19:42:43.565Z,4.97
2023-05-10T19:45:11.221Z,4.35
2023-05-10T19:47:38.296Z,4.03
2023-05-10T19:50:06.642Z,3.33
2023-05-10T19:52:33.751Z,2.90
2023-05-10T19:55:00.726Z,3.17
2023-05-10T19:57:27.827Z,2.42
2023-05-10T19:59:54.775Z,2.75
2023-05-10T20:02:21.677Z,2.57
2023-05-10T20:04:48.722Z,2.42
2023-05-10T20:07:15.800Z,3.55
2023-05-10T20:09:44.273Z,3.00
2023-05-10T20:12:12.810Z,3.20
2023-05-10T20:14:39.826Z,2.43
2023-05-10T20:17:09.549Z,2.58
2023-05-10T20:19:36.499Z,2.30
2023-05-10T20:22:07.020Z,2.70
2023-05-10T20:24:33.933Z,2.25
2023-05-10T20:27:00.955Z,2.33
2023-05-10T20:29:27.889Z,2.60
2023-05-10T20:31:54.953Z,2.30
2023-05-10T20:34:22.090Z,2.95
2023-05-10T20:36:49.228Z,2.90
2023-05-10T20:39:16.231Z,2.17
2023-05-10T20:41:44.018Z,2.40
2023-05-10T20:44:11.399Z,2.42
2023-05-10T20:46:38.408Z,2.50
2023-05-10T20:49:05.867Z,2.45
2023-05-10T20:51:36.361Z,2.70
2023-05-10T20:54:04.600Z,4.78
2023-05-10T20:56:35.120Z,3.38
2023-05-10T20:59:04.823Z,3.10
2023-05-10T21:01:32.182Z,3.08
2023-05-10T21:03:59.011Z,2.97
2023-05-10T21:06:25.850Z,3.30
2023-05-10T21:08:52.688Z,3.20
2023-05-10T21:11:19.432Z,3.20
2023-05-10T21:13:46.179Z,2.83
2023-05-10T21:16:12.905Z,3.00
2023-05-10T21:18:39.674Z,2.67
2023-05-10T21:21:06.437Z,2.58
2023-05-10T21:23:34.525Z,2.20
2023-05-10T21:26:04.997Z,3.38
2023-05-10T21:28:31.714Z,2.83
2023-05-10T21:30:58.541Z,3.10
2023-05-10T21:33:25.264Z,2.15
2023-05-10T21:35:52.673Z,2.80
2023-05-10T21:38:19.408Z,2.45
2023-05-10T21:40:46.316Z,2.70
2023-05-10T21:43:13.179Z,2.40
2023-05-10T21:45:40.803Z,2.25
2023-05-10T21:48:07.947Z,2.35
2023-05-10T21:50:34.757Z,2.40
2023-05-10T21:53:03.966Z,2.70
2023-05-10T21:55:31.007Z,2.17
2023-05-10T21:57:58.439Z,2.30
2023-05-10T22:00:27.787Z,2.00
2023-05-10T22:02:57.019Z,2.28
2023-05-10T22:05:23.822Z,2.60
2023-05-10T22:07:50.874Z,2.58
2023-05-10T22:10:19.175Z,2.10
2023-05-10T22:12:46.102Z,2.30
2023-05-10T22:15:13.074Z,2.70
2023-05-10T22:17:40.177Z,2.23
2023-05-10T22:20:09.714Z,2.08
2023-05-10T22:22:40.028Z,2.45
2023-05-10T22:25:07.687Z,2.22
2023-05-10T22:27:34.918Z,1.92
2023-05-10T22:30:01.893Z,2.10
2023-05-10T22:32:29.182Z,2.00
2023-05-10T22:34:56.510Z,2.00
2023-05-10T22:37:23.202Z,1.48
2023-05-10T22:39:51.164Z,2.30
2023-05-10T22:42:17.887Z,2.03
2023-05-10T22:44:44.670Z,2.22
2023-05-10T22:47:14.688Z,2.38
2023-05-10T22:49:41.497Z,1.88
2023-05-10T22:52:08.312Z,2.28
2023-05-10T22:54:36.236Z,2.30
2023-05-10T22:57:03.253Z,2.20
2023-05-10T22:59:30.049Z,2.58
2023-05-10T23:01:56.945Z,2.20
2023-05-10T23:04:26.024Z,2.58
2023-05-10T23:06:53.706Z,2.13
2023-05-10T23:09:20.443Z,2.75
2023-05-10T23:11:47.460Z,2.35
2023-05-10T23:14:16.521Z,2.60
2023-05-10T23:16:43.283Z,2.28
2023-05-10T23:19:10.004Z,2.10
2023-05-10T23:21:37.191Z,2.25
2023-05-10T23:24:04.103Z,2.33
2023-05-10T23:26:34.978Z,2.30
2023-05-10T23:29:04.731Z,2.53
2023-05-10T23:31:31.453Z,2.70
2023-05-10T23:33:58.263Z,2.97
2023-05-10T23:36:26.114Z,2.50
2023-05-10T23:38:52.830Z,2.90
2023-05-10T23:41:19.660Z,2.72
2023-05-10T23:43:46.353Z,2.33
2023-05-10T23:46:13.121Z,2.33
2023-05-10T23:48:39.846Z,2.88
2023-05-10T23:51:06.664Z,2.78
2023-05-10T23:53:33.345Z,2.47
2023-05-10T23:56:00.062Z,2.37
2023-05-10T23:58:26.848Z,2.38
